createdAt,value
2023-02-12T00:00:06.271Z,6.00
2023-02-12T00:01:06.262Z,5.99
2023-02-12T00:02:06.257Z,5.98
2023-02-12T00:03:06.208Z,5.98
2023-02-12T00:04:06.173Z,6.01
2023-02-12T00:05:06.203Z,6.03
2023-02-12T00:06:06.260Z,6.04
2023-02-12T00:07:06.151Z,6.07
2023-02-12T00:08:06.120Z,6.08
2023-02-12T00:09:06.113Z,6.11
2023-02-12T00:10:06.094Z,6.13
2023-02-12T00:11:06.080Z,6.14
2023-02-12T00:12:06.120Z,6.13
2023-02-12T00:13:06.059Z,6.10
2023-02-12T00:14:06.028Z,6.08
2023-02-12T00:15:06.034Z,6.09
2023-02-12T00:16:06.109Z,6.12
2023-02-12T00:17:06.041Z,6.11
2023-02-12T00:18:06.036Z,6.12
2023-02-12T00:19:05.969Z,6.14
2023-02-12T00:20:05.971Z,6.17
2023-02-12T00:21:05.977Z,6.18
2023-02-12T00:22:05.958Z,6.17
2023-02-12T00:23:05.962Z,6.17
2023-02-12T00:24:05.935Z,6.20
2023-02-12T00:25:05.913Z,6.20
2023-02-12T00:26:05.911Z,6.23
2023-02-12T00:27:05.888Z,6.22
2023-02-12T00:28:05.904Z,6.21
2023-02-12T00:29:05.861Z,6.18
2023-02-12T00:30:05.858Z,6.17
2023-02-12T00:31:05.930Z,6.18
2023-02-12T00:32:05.808Z,6.20
2023-02-12T00:33:05.813Z,6.20
2023-02-12T00:34:05.813Z,6.19
2023-02-12T00:35:05.798Z,6.19
2023-02-12T00:36:05.781Z,6.19
2023-02-12T00:37:05.726Z,6.19
2023-02-12T00:38:05.775Z,6.19
2023-02-12T00:39:05.725Z,6.21
2023-02-12T00:40:05.723Z,6.22
2023-02-12T00:41:05.679Z,6.22
2023-02-12T00:42:06.689Z,6.21
2023-02-12T00:43:06.373Z,6.22
2023-02-12T00:44:07.806Z,6.21
2023-02-12T00:45:05.658Z,6.20
2023-02-12T00:46:05.664Z,6.19
2023-02-12T00:47:05.624Z,6.18
2023-02-12T00:48:05.627Z,6.16
2023-02-12T00:49:05.582Z,6.14
2023-02-12T00:50:05.718Z,6.15
2023-02-12T00:51:05.583Z,6.16
2023-02-12T00:52:05.537Z,6.18
2023-02-12T00:53:05.510Z,6.16
2023-02-12T00:54:05.542Z,6.16
2023-02-12T00:55:05.532Z,6.16
2023-02-12T00:56:05.508Z,6.15
2023-02-12T00:57:05.472Z,6.16
2023-02-12T00:58:05.461Z,6.16
2023-02-12T00:59:05.500Z,6.13
2023-02-12T01:00:05.456Z,6.11
2023-02-12T01:01:05.602Z,6.10
2023-02-12T01:02:05.450Z,6.10
2023-02-12T01:03:05.450Z,6.13
2023-02-12T01:04:05.380Z,6.13
2023-02-12T01:05:05.457Z,6.13
2023-02-12T01:06:05.429Z,6.14
2023-02-12T01:07:05.338Z,6.14
2023-02-12T01:08:05.341Z,6.14
2023-02-12T01:09:05.310Z,6.16
2023-02-12T01:10:05.331Z,6.17
2023-02-12T01:11:05.316Z,6.17
2023-02-12T01:12:05.326Z,6.20
2023-02-12T01:13:05.456Z,6.22
2023-02-12T01:14:05.263Z,6.25
2023-02-12T01:15:05.251Z,6.26
2023-02-12T01:16:05.251Z,6.25
2023-02-12T01:17:05.222Z,6.24
2023-02-12T01:18:05.233Z,6.22
2023-02-12T01:19:05.222Z,6.18
2023-02-12T01:20:05.159Z,6.14
2023-02-12T01:21:05.157Z,6.12
2023-02-12T01:22:05.154Z,6.11
2023-02-12T01:23:05.140Z,6.11
2023-02-12T01:24:05.175Z,6.10
2023-02-12T01:25:05.118Z,6.09
2023-02-12T01:26:05.091Z,6.12
2023-02-12T01:27:05.087Z,6.14
2023-02-12T01:28:05.091Z,6.18
2023-02-12T01:29:05.075Z,6.23
2023-02-12T01:30:05.086Z,6.24
2023-02-12T01:31:05.156Z,6.22
2023-02-12T01:32:05.118Z,6.21
2023-02-12T01:33:04.998Z,6.22
2023-02-12T01:34:04.978Z,6.23
2023-02-12T01:35:05.006Z,6.25
2023-02-12T01:36:05.009Z,6.25
2023-02-12T01:37:04.932Z,6.26
2023-02-12T01:38:04.947Z,6.27
2023-02-12T01:39:04.929Z,6.26
2023-02-12T01:40:04.909Z,6.23
2023-02-12T01:41:04.918Z,6.23
2023-02-12T01:42:04.896Z,6.23
2023-02-12T01:43:04.872Z,6.23
2023-02-12T01:44:04.867Z,6.24
2023-02-12T01:45:04.851Z,6.24
2023-02-12T01:46:04.873Z,6.24
2023-02-12T01:47:04.819Z,6.24
2023-02-12T01:48:04.797Z,6.21
2023-02-12T01:49:04.777Z,6.19
2023-02-12T01:50:04.806Z,6.15
2023-02-12T01:51:04.804Z,6.11
2023-02-12T01:52:04.775Z,6.07
2023-02-12T01:53:04.758Z,6.06
2023-02-12T01:54:04.728Z,6.06
2023-02-12T01:55:04.716Z,6.06
2023-02-12T01:56:04.697Z,6.06
2023-02-12T01:57:04.698Z,6.04
2023-02-12T01:58:04.670Z,6.01
2023-02-12T01:59:04.651Z,6.01
2023-02-12T02:00:04.663Z,6.02
2023-02-12T02:01:04.629Z,6.02
2023-02-12T02:02:04.729Z,6.02
2023-02-12T02:03:04.771Z,6.04
2023-02-12T02:04:04.592Z,6.06
2023-02-12T02:05:04.573Z,6.05
2023-02-12T02:06:04.612Z,6.03
2023-02-12T02:07:04.545Z,6.03
2023-02-12T02:08:04.604Z,6.05
2023-02-12T02:09:04.539Z,6.07
2023-02-12T02:10:04.506Z,6.06
2023-02-12T02:11:04.514Z,6.04
2023-02-12T02:12:04.765Z,6.06
2023-02-12T02:13:04.464Z,6.07
2023-02-12T02:14:04.455Z,6.08
2023-02-12T02:15:04.494Z,6.08
2023-02-12T02:16:04.464Z,6.09
2023-02-12T02:17:04.424Z,6.12
2023-02-12T02:18:04.444Z,6.14
2023-02-12T02:19:04.409Z,6.15
2023-02-12T02:20:04.365Z,6.14
2023-02-12T02:21:04.361Z,6.15
2023-02-12T02:22:04.362Z,6.17
2023-02-12T02:23:04.347Z,6.15
2023-02-12T02:24:04.340Z,6.11
2023-02-12T02:25:04.310Z,6.11
2023-02-12T02:26:04.282Z,6.12
2023-02-12T02:27:04.275Z,6.12
2023-02-12T02:28:04.303Z,6.13
2023-02-12T02:29:04.262Z,6.13
2023-02-12T02:30:04.260Z,6.11
2023-02-12T02:31:04.380Z,6.11
2023-02-12T02:32:04.263Z,6.09
2023-02-12T02:33:04.198Z,6.06
2023-02-12T02:34:04.179Z,6.03
2023-02-12T02:35:04.199Z,6.04
2023-02-12T02:36:04.220Z,6.03
2023-02-12T02:37:04.138Z,6.03
2023-02-12T02:38:04.121Z,6.04
2023-02-12T02:39:04.130Z,6.04
2023-02-12T02:40:04.127Z,6.04
2023-02-12T02:41:04.080Z,6.04
2023-02-12T02:42:04.114Z,6.02
2023-02-12T02:43:04.059Z,6.01
2023-02-12T02:44:04.109Z,5.99
2023-02-12T02:45:04.058Z,5.99
2023-02-12T02:46:04.020Z,5.96
2023-02-12T02:47:04.079Z,5.94
2023-02-12T02:48:04.016Z,5.90
2023-02-12T02:49:03.980Z,5.89
2023-02-12T02:50:04.000Z,5.88
2023-02-12T02:51:03.988Z,5.92
2023-02-12T02:52:03.930Z,5.93
2023-02-12T02:53:03.951Z,5.93
2023-02-12T02:54:03.950Z,5.93
2023-02-12T02:55:03.911Z,5.93
2023-02-12T02:56:03.908Z,5.92
2023-02-12T02:57:03.911Z,5.91
2023-02-12T02:58:03.867Z,5.91
2023-02-12T02:59:03.891Z,5.93
2023-02-12T03:00:03.857Z,5.94
2023-02-12T03:01:03.956Z,5.94
2023-02-12T03:02:03.826Z,5.93
2023-02-12T03:03:03.880Z,5.92
2023-02-12T03:04:03.778Z,5.92
2023-02-12T03:05:03.780Z,5.90
2023-02-12T03:06:03.783Z,5.91
2023-02-12T03:07:03.754Z,5.92
2023-02-12T03:08:03.751Z,5.92
2023-02-12T03:09:03.764Z,5.90
2023-02-12T03:10:03.758Z,5.88
2023-02-12T03:11:03.681Z,5.87
2023-02-12T03:12:03.757Z,5.87
2023-02-12T03:13:03.722Z,5.88
2023-02-12T03:14:03.661Z,5.87
2023-02-12T03:15:03.653Z,5.86
2023-02-12T03:16:03.648Z,5.82
2023-02-12T03:17:03.620Z,5.77
2023-02-12T03:18:03.630Z,5.73
2023-02-12T03:19:03.634Z,5.72
2023-02-12T03:20:03.568Z,5.71
2023-02-12T03:21:03.551Z,5.70
2023-02-12T03:22:03.580Z,5.69
2023-02-12T03:23:03.576Z,5.70
2023-02-12T03:24:03.523Z,5.72
2023-02-12T03:25:03.593Z,5.73
2023-02-12T03:26:03.497Z,5.73
2023-02-12T03:27:03.469Z,5.74
2023-02-12T03:28:03.502Z,5.75
2023-02-12T03:29:03.546Z,5.77
2023-02-12T03:30:03.456Z,5.76
2023-02-12T03:31:03.464Z,5.76
2023-02-12T03:32:03.417Z,5.76
2023-02-12T03:33:03.602Z,5.78
2023-02-12T03:34:03.468Z,5.78
2023-02-12T03:35:03.403Z,5.78
2023-02-12T03:36:03.369Z,5.78
2023-02-12T03:37:03.343Z,5.78
2023-02-12T03:38:03.353Z,5.78
2023-02-12T03:39:03.353Z,5.76
2023-02-12T03:40:03.322Z,5.73
2023-02-12T03:41:03.305Z,5.71
2023-02-12T03:42:03.319Z,5.70
2023-02-12T03:43:03.267Z,5.71
2023-02-12T03:44:03.282Z,5.71
2023-02-12T03:45:03.280Z,5.72
2023-02-12T03:46:03.301Z,5.72
2023-02-12T03:47:03.281Z,5.70
2023-02-12T03:48:03.224Z,5.70
2023-02-12T03:49:03.267Z,5.69
2023-02-12T03:50:03.215Z,5.64
2023-02-12T03:51:03.245Z,5.59
2023-02-12T03:52:03.164Z,5.57
2023-02-12T03:53:03.163Z,5.56
2023-02-12T03:54:03.151Z,5.56
2023-02-12T03:55:03.154Z,5.53
2023-02-12T03:56:03.101Z,5.50
2023-02-12T03:57:03.115Z,5.48
2023-02-12T03:58:03.079Z,5.47
2023-02-12T03:59:03.055Z,5.44
2023-02-12T04:00:03.043Z,5.43
2023-02-12T04:01:03.111Z,5.42
2023-02-12T04:02:03.108Z,5.41
2023-02-12T04:03:02.984Z,5.40
2023-02-12T04:04:03.005Z,5.41
2023-02-12T04:05:03.008Z,5.41
2023-02-12T04:06:02.975Z,5.38
2023-02-12T04:07:02.943Z,5.38
2023-02-12T04:08:02.914Z,5.38
2023-02-12T04:09:02.927Z,5.39
2023-02-12T04:10:02.920Z,5.39
2023-02-12T04:11:02.900Z,5.37
2023-02-12T04:12:02.913Z,5.37
2023-02-12T04:13:02.882Z,5.37
2023-02-12T04:14:02.870Z,5.37
2023-02-12T04:15:02.833Z,5.38
2023-02-12T04:16:02.820Z,5.38
2023-02-12T04:17:02.861Z,5.37
2023-02-12T04:18:02.890Z,5.36
2023-02-12T04:19:02.820Z,5.36
2023-02-12T04:20:02.767Z,5.35
2023-02-12T04:21:02.808Z,5.34
2023-02-12T04:22:02.732Z,5.33
2023-02-12T04:23:02.757Z,5.35
2023-02-12T04:24:02.734Z,5.36
2023-02-12T04:25:02.724Z,5.36
2023-02-12T04:26:02.674Z,5.36
2023-02-12T04:27:02.671Z,5.36
2023-02-12T04:28:02.717Z,5.36
2023-02-12T04:29:02.667Z,5.38
2023-02-12T04:30:02.654Z,5.40
2023-02-12T04:31:02.687Z,5.39
2023-02-12T04:32:02.598Z,5.38
2023-02-12T04:33:02.589Z,5.39
2023-02-12T04:34:02.588Z,5.40
2023-02-12T04:35:02.576Z,5.41
2023-02-12T04:36:02.596Z,5.43
2023-02-12T04:37:02.562Z,5.42
2023-02-12T04:38:02.517Z,5.44
2023-02-12T04:39:02.510Z,5.45
2023-02-12T04:40:02.553Z,5.48
2023-02-12T04:41:02.517Z,5.48
2023-02-12T04:42:02.491Z,5.50
2023-02-12T04:43:02.483Z,5.52
2023-02-12T04:44:02.461Z,5.57
2023-02-12T04:45:02.479Z,5.61
2023-02-12T04:46:02.453Z,5.62
2023-02-12T04:47:02.415Z,5.60
2023-02-12T04:48:02.471Z,5.59
2023-02-12T04:49:02.400Z,5.58
2023-02-12T04:50:02.366Z,5.59
2023-02-12T04:51:02.354Z,5.62
2023-02-12T04:52:02.359Z,5.64
2023-02-12T04:53:02.351Z,5.65
2023-02-12T04:54:02.327Z,5.66
2023-02-12T04:55:02.358Z,5.65
2023-02-12T04:56:02.347Z,5.66
2023-02-12T04:57:02.298Z,5.68
2023-02-12T04:58:02.295Z,5.71
2023-02-12T04:59:02.257Z,5.74
2023-02-12T05:00:02.263Z,5.73
2023-02-12T05:01:02.286Z,5.73
2023-02-12T05:02:02.206Z,5.72
2023-02-12T05:03:02.215Z,5.71
2023-02-12T05:04:02.203Z,5.69
2023-02-12T05:05:02.255Z,5.68
2023-02-12T05:06:02.181Z,5.68
2023-02-12T05:07:02.149Z,5.69
2023-02-12T05:08:02.165Z,5.67
2023-02-12T05:09:02.140Z,5.64
2023-02-12T05:10:02.132Z,5.60
2023-02-12T05:11:02.078Z,5.59
2023-02-12T05:12:02.480Z,5.60
2023-02-12T05:13:02.095Z,5.61
2023-02-12T05:14:02.072Z,5.60
2023-02-12T05:15:02.084Z,5.60
2023-02-12T05:16:02.055Z,5.59
2023-02-12T05:17:02.013Z,5.60
2023-02-12T05:18:02.007Z,5.61
2023-02-12T05:19:01.993Z,5.63
2023-02-12T05:20:01.979Z,5.66
2023-02-12T05:21:01.969Z,5.67
2023-02-12T05:22:01.970Z,5.69
2023-02-12T05:23:01.918Z,5.70
2023-02-12T05:24:01.930Z,5.71
2023-02-12T05:25:01.899Z,5.72
2023-02-12T05:26:01.913Z,5.72
2023-02-12T05:27:01.876Z,5.73
2023-02-12T05:28:01.924Z,5.74
2023-02-12T05:29:01.837Z,5.78
2023-02-12T05:30:01.872Z,5.81
2023-02-12T05:31:01.990Z,5.83
2023-02-12T05:32:01.953Z,5.83
2023-02-12T05:33:01.788Z,5.83
2023-02-12T05:34:01.786Z,5.81
2023-02-12T05:35:01.787Z,5.78
2023-02-12T05:36:01.796Z,5.76
2023-02-12T05:37:01.830Z,5.75
2023-02-12T05:38:01.735Z,5.72
2023-02-12T05:39:01.712Z,5.71
2023-02-12T05:40:01.719Z,5.70
2023-02-12T05:41:01.684Z,5.68
2023-02-12T05:42:01.713Z,5.70
2023-02-12T05:43:01.687Z,5.71
2023-02-12T05:44:01.659Z,5.72
2023-02-12T05:45:01.632Z,5.72
2023-02-12T05:46:01.683Z,5.73
2023-02-12T05:47:01.629Z,5.75
2023-02-12T05:48:03.485Z,5.74
2023-02-12T05:49:01.584Z,5.74
2023-02-12T05:50:01.588Z,5.74
2023-02-12T05:51:01.560Z,5.74
2023-02-12T05:52:01.539Z,5.75
2023-02-12T05:53:01.542Z,5.74
2023-02-12T05:54:01.564Z,5.72
2023-02-12T05:55:01.505Z,5.72
2023-02-12T05:56:01.489Z,5.71
2023-02-12T05:57:01.487Z,5.72
2023-02-12T05:58:01.470Z,5.74
2023-02-12T05:59:01.452Z,5.75
2023-02-12T06:00:01.461Z,5.73
2023-02-12T06:01:01.432Z,5.70
2023-02-12T06:02:01.421Z,5.68
2023-02-12T06:03:01.391Z,5.68
2023-02-12T06:04:01.447Z,5.67
2023-02-12T06:05:01.395Z,5.68
2023-02-12T06:06:01.428Z,5.67
2023-02-12T06:07:01.358Z,5.65
2023-02-12T06:08:01.322Z,5.67
2023-02-12T06:09:01.343Z,5.68
2023-02-12T06:10:01.347Z,5.69
2023-02-12T06:11:01.294Z,5.70
2023-02-12T06:12:01.281Z,5.69
2023-02-12T06:13:01.248Z,5.68
2023-02-12T06:14:01.228Z,5.69
2023-02-12T06:15:01.230Z,5.68
2023-02-12T06:16:01.387Z,5.70
2023-02-12T06:17:01.234Z,5.71
2023-02-12T06:18:01.211Z,5.71
2023-02-12T06:19:01.175Z,5.70
2023-02-12T06:20:01.180Z,5.71
2023-02-12T06:21:01.165Z,5.70
2023-02-12T06:22:01.224Z,5.69
2023-02-12T06:23:01.122Z,5.69
2023-02-12T06:24:01.127Z,5.66
2023-02-12T06:25:01.118Z,5.66
2023-02-12T06:26:01.097Z,5.66
2023-02-12T06:27:01.070Z,5.65
2023-02-12T06:28:01.087Z,5.65
2023-02-12T06:29:01.049Z,5.66
2023-02-12T06:30:01.040Z,5.67
2023-02-12T06:31:01.186Z,5.66
2023-02-12T06:32:01.174Z,5.67
2023-02-12T06:33:01.008Z,5.66
2023-02-12T06:34:01.013Z,5.64
2023-02-12T06:35:00.968Z,5.65
2023-02-12T06:36:01.004Z,5.66
2023-02-12T06:37:00.948Z,5.67
2023-02-12T06:38:00.927Z,5.67
2023-02-12T06:39:00.967Z,5.69
2023-02-12T06:40:00.901Z,5.71
2023-02-12T06:41:00.957Z,5.70
2023-02-12T06:42:00.926Z,5.69
2023-02-12T06:43:00.923Z,5.68
2023-02-12T06:44:00.864Z,5.68
2023-02-12T06:45:00.874Z,5.68
2023-02-12T06:46:00.841Z,5.70
2023-02-12T06:47:00.914Z,5.70
2023-02-12T06:48:00.858Z,5.69
2023-02-12T06:49:00.783Z,5.68
2023-02-12T06:50:00.772Z,5.68
2023-02-12T06:51:00.753Z,5.67
2023-02-12T06:52:03.218Z,5.69
2023-02-12T06:53:00.762Z,5.71
2023-02-12T06:54:00.752Z,5.70
2023-02-12T06:55:00.773Z,5.71
2023-02-12T06:56:00.693Z,5.71
2023-02-12T06:57:00.692Z,5.71
2023-02-12T06:58:00.673Z,5.71
2023-02-12T06:59:00.682Z,5.71
2023-02-12T07:00:00.676Z,5.72
2023-02-12T07:01:00.635Z,5.72
2023-02-12T07:02:00.675Z,5.75
2023-02-12T07:03:00.608Z,5.77
2023-02-12T07:04:00.652Z,5.78
2023-02-12T07:05:00.613Z,5.80
2023-02-12T07:06:00.579Z,5.82
2023-02-12T07:07:00.551Z,5.84
2023-02-12T07:08:00.569Z,5.83
2023-02-12T07:09:00.678Z,5.81
2023-02-12T07:10:00.517Z,5.79
2023-02-12T07:11:00.512Z,5.77
2023-02-12T07:12:00.505Z,5.76
2023-02-12T07:13:00.472Z,5.77
2023-02-12T07:14:00.455Z,5.79
2023-02-12T07:15:00.442Z,5.79
2023-02-12T07:16:00.524Z,5.79
2023-02-12T07:17:00.419Z,5.81
2023-02-12T07:18:00.430Z,5.84
2023-02-12T07:19:00.431Z,5.86
2023-02-12T07:20:00.380Z,5.87
2023-02-12T07:21:00.354Z,5.87
2023-02-12T07:22:00.349Z,5.87
2023-02-12T07:23:00.332Z,5.86
2023-02-12T07:24:00.368Z,5.86
2023-02-12T07:25:00.316Z,5.89
2023-02-12T07:26:00.283Z,5.92
2023-02-12T07:27:00.286Z,5.93
2023-02-12T07:28:00.306Z,5.95
2023-02-12T07:29:00.260Z,5.97
2023-02-12T07:30:00.284Z,6.01
2023-02-12T07:31:00.280Z,6.03
2023-02-12T07:32:00.286Z,6.08
2023-02-12T07:33:00.201Z,6.12
2023-02-12T07:34:00.199Z,6.14
2023-02-12T07:35:00.206Z,6.17
2023-02-12T07:36:00.197Z,6.19
2023-02-12T07:37:00.164Z,6.18
2023-02-12T07:38:00.148Z,6.20
2023-02-12T07:39:00.155Z,6.25
2023-02-12T07:40:00.163Z,6.28
2023-02-12T07:41:00.118Z,6.33
2023-02-12T07:42:00.121Z,6.37
2023-02-12T07:43:00.104Z,6.40
2023-02-12T07:44:00.058Z,6.43
2023-02-12T07:45:00.036Z,6.45
2023-02-12T07:46:00.127Z,6.49
2023-02-12T07:47:00.044Z,6.52
2023-02-12T07:48:00.019Z,6.54
2023-02-12T07:48:59.977Z,6.54
2023-02-12T07:49:59.972Z,6.55
2023-02-12T07:50:59.948Z,6.55
2023-02-12T07:52:00.010Z,6.55
2023-02-12T07:52:59.960Z,6.57
2023-02-12T07:53:59.985Z,6.58
2023-02-12T07:54:59.916Z,6.60
2023-02-12T07:55:59.893Z,6.64
2023-02-12T07:56:59.894Z,6.68
2023-02-12T07:57:59.881Z,6.72
2023-02-12T07:58:59.880Z,6.76
2023-02-12T07:59:59.857Z,6.78
2023-02-12T08:00:59.837Z,6.81
2023-02-12T08:01:59.840Z,6.84
2023-02-12T08:02:59.804Z,6.87
2023-02-12T08:03:59.790Z,6.89
2023-02-12T08:04:59.773Z,6.90
2023-02-12T08:05:59.810Z,6.93
2023-02-12T08:06:59.750Z,6.96
2023-02-12T08:07:59.728Z,6.99
2023-02-12T08:08:59.739Z,7.00
2023-02-12T08:09:59.765Z,7.02
2023-02-12T08:10:59.699Z,7.02
2023-02-12T08:11:59.708Z,6.99
2023-02-12T08:12:59.684Z,6.97
2023-02-12T08:13:59.648Z,6.98
2023-02-12T08:14:59.735Z,7.00
2023-02-12T08:15:59.666Z,7.00
2023-02-12T08:16:59.638Z,7.01
2023-02-12T08:17:59.615Z,7.01
2023-02-12T08:19:14.630Z,7.02
2023-02-12T08:20:00.609Z,7.04
2023-02-12T08:20:59.581Z,7.06
2023-02-12T08:21:59.530Z,7.10
2023-02-12T08:22:59.523Z,7.15
2023-02-12T08:23:59.540Z,7.17
2023-02-12T08:24:59.521Z,7.19
2023-02-12T08:25:59.517Z,7.21
2023-02-12T08:26:59.553Z,7.25
2023-02-12T08:27:59.477Z,7.30
2023-02-12T08:28:59.461Z,7.32
2023-02-12T08:29:59.496Z,7.33
2023-02-12T08:30:59.477Z,7.35
2023-02-12T08:31:59.707Z,7.38
2023-02-12T08:32:59.407Z,7.44
2023-02-12T08:33:59.388Z,7.49
2023-02-12T08:34:59.378Z,7.56
2023-02-12T08:36:00.037Z,7.63
2023-02-12T08:36:59.396Z,7.71
2023-02-12T08:37:59.354Z,7.77
2023-02-12T08:38:59.331Z,7.79
2023-02-12T08:39:59.408Z,7.81
2023-02-12T08:40:59.328Z,7.80
2023-02-12T08:41:59.304Z,7.78
2023-02-12T08:42:59.308Z,7.78
2023-02-12T08:43:59.281Z,7.81
2023-02-12T08:44:59.249Z,7.82
2023-02-12T08:45:59.273Z,7.81
2023-02-12T08:46:59.212Z,7.81
2023-02-12T08:47:59.250Z,7.81
2023-02-12T08:48:59.309Z,7.81
2023-02-12T08:49:59.345Z,7.78
2023-02-12T08:50:59.338Z,7.76
2023-02-12T08:51:59.150Z,7.78
2023-02-12T08:52:59.140Z,7.80
2023-02-12T08:53:59.260Z,7.83
2023-02-12T08:54:59.133Z,7.89
2023-02-12T08:55:59.211Z,7.96
2023-02-12T08:57:00.926Z,8.02
2023-02-12T08:58:00.115Z,8.10
2023-02-12T08:58:59.230Z,8.17
2023-02-12T08:59:59.254Z,8.20
2023-02-12T09:00:59.080Z,8.20
2023-02-12T09:01:59.045Z,8.21
2023-02-12T09:02:59.000Z,8.22
2023-02-12T09:03:58.994Z,8.24
2023-02-12T09:04:58.966Z,8.24
2023-02-12T09:05:59.056Z,8.22
2023-02-12T09:06:58.935Z,8.22
2023-02-12T09:07:58.930Z,8.22
2023-02-12T09:08:59.013Z,8.22
2023-02-12T09:09:58.906Z,8.24
2023-02-12T09:10:58.927Z,8.27
2023-02-12T09:11:58.904Z,8.31
2023-02-12T09:12:58.866Z,8.34
2023-02-12T09:13:58.846Z,8.35
2023-02-12T09:14:58.860Z,8.36
2023-02-12T09:15:59.133Z,8.37
2023-02-12T09:16:58.880Z,8.36
2023-02-12T09:17:58.797Z,8.35
2023-02-12T09:18:58.771Z,8.36
2023-02-12T09:19:58.782Z,8.37
2023-02-12T09:20:58.776Z,8.40
2023-02-12T09:21:58.818Z,8.45
2023-02-12T09:22:58.783Z,8.50
2023-02-12T09:23:58.743Z,8.51
2023-02-12T09:24:58.697Z,8.62
2023-02-12T09:25:58.947Z,8.77
2023-02-12T09:26:58.698Z,8.90
2023-02-12T09:27:58.732Z,9.03
2023-02-12T09:28:58.659Z,9.13
2023-02-12T09:29:58.684Z,9.13
2023-02-12T09:30:58.682Z,9.10
2023-02-12T09:31:58.713Z,9.02
2023-02-12T09:32:58.629Z,8.93
2023-02-12T09:33:58.582Z,8.88
2023-02-12T09:34:58.568Z,8.83
2023-02-12T09:35:58.587Z,8.78
2023-02-12T09:36:58.557Z,8.73
2023-02-12T09:37:58.544Z,8.72
2023-02-12T09:38:58.519Z,8.69
2023-02-12T09:39:58.511Z,8.68
2023-02-12T09:40:58.524Z,8.68
2023-02-12T09:41:58.532Z,8.71
2023-02-12T09:42:58.470Z,8.76
2023-02-12T09:43:58.448Z,8.84
2023-02-12T09:44:58.427Z,8.86
2023-02-12T09:45:58.954Z,8.89
2023-02-12T09:46:58.427Z,8.92
2023-02-12T09:47:58.424Z,8.90
2023-02-12T09:48:58.504Z,8.86
2023-02-12T09:49:58.394Z,8.80
2023-02-12T09:50:58.380Z,8.78
2023-02-12T09:51:58.360Z,8.77
2023-02-12T09:52:58.444Z,8.77
2023-02-12T09:53:58.365Z,8.75
2023-02-12T09:54:58.344Z,8.72
2023-02-12T09:55:58.578Z,8.70
2023-02-12T09:56:58.286Z,8.68
2023-02-12T09:57:58.272Z,8.67
2023-02-12T09:58:58.451Z,8.62
2023-02-12T09:59:58.272Z,8.60
2023-02-12T10:00:58.237Z,8.59
2023-02-12T10:01:58.259Z,8.58
2023-02-12T10:02:58.199Z,8.57
2023-02-12T10:03:58.280Z,8.57
2023-02-12T10:05:01.985Z,8.55
2023-02-12T10:05:58.514Z,8.51
2023-02-12T10:06:58.170Z,8.52
2023-02-12T10:07:58.145Z,8.53
2023-02-12T10:08:58.147Z,8.56
2023-02-12T10:09:58.142Z,8.58
2023-02-12T10:10:58.141Z,8.61
2023-02-12T10:11:58.101Z,8.61
2023-02-12T10:12:58.125Z,8.58
2023-02-12T10:13:58.176Z,8.52
2023-02-12T10:14:58.049Z,8.48
2023-02-12T10:15:58.427Z,8.51
2023-02-12T10:16:58.023Z,8.55
2023-02-12T10:17:58.142Z,8.61
2023-02-12T10:18:57.999Z,8.68
2023-02-12T10:19:57.983Z,8.71
2023-02-12T10:20:58.387Z,8.75
2023-02-12T10:21:57.982Z,8.81
2023-02-12T10:22:58.125Z,8.87
2023-02-12T10:23:57.942Z,8.92
2023-02-12T10:24:57.922Z,8.97
2023-02-12T10:25:58.211Z,9.01
2023-02-12T10:26:57.945Z,9.07
2023-02-12T10:27:57.960Z,9.13
2023-02-12T10:28:57.860Z,9.20
2023-02-12T10:29:57.855Z,9.21
2023-02-12T10:30:57.986Z,9.21
2023-02-12T10:31:58.790Z,9.21
2023-02-12T10:32:57.802Z,9.22
2023-02-12T10:33:57.806Z,9.24
2023-02-12T10:34:57.787Z,9.26
2023-02-12T10:35:58.166Z,9.28
2023-02-12T10:36:57.789Z,9.30
2023-02-12T10:37:57.775Z,9.34
2023-02-12T10:38:57.726Z,9.40
2023-02-12T10:39:57.709Z,9.47
2023-02-12T10:40:57.704Z,9.55
2023-02-12T10:41:57.738Z,9.64
2023-02-12T10:42:57.713Z,9.73
2023-02-12T10:43:57.649Z,9.78
2023-02-12T10:44:57.638Z,9.82
2023-02-12T10:45:58.118Z,9.86
2023-02-12T10:46:57.609Z,9.91
2023-02-12T10:47:57.669Z,9.91
2023-02-12T10:48:57.584Z,9.91
2023-02-12T10:49:57.580Z,9.95
2023-02-12T10:50:57.558Z,10.00
2023-02-12T10:51:57.553Z,10.06
2023-02-12T10:52:57.541Z,10.09
2023-02-12T10:53:57.572Z,10.10
2023-02-12T10:54:57.546Z,10.12
2023-02-12T10:55:57.811Z,10.15
2023-02-12T10:56:57.484Z,10.19
2023-02-12T10:57:57.495Z,10.23
2023-02-12T10:58:57.455Z,10.23
2023-02-12T10:59:57.497Z,10.24
2023-02-12T11:00:57.448Z,10.26
2023-02-12T11:01:57.446Z,10.31
2023-02-12T11:02:57.442Z,10.36
2023-02-12T11:03:57.399Z,10.38
2023-02-12T11:04:57.453Z,10.39
2023-02-12T11:05:57.730Z,10.38
2023-02-12T11:06:57.345Z,10.37
2023-02-12T11:07:57.719Z,10.33
2023-02-12T11:08:57.334Z,10.27
2023-02-12T11:09:57.336Z,10.18
2023-02-12T11:10:57.285Z,10.10
2023-02-12T11:11:57.287Z,10.05
2023-02-12T11:12:57.276Z,10.02
2023-02-12T11:13:57.276Z,9.99
2023-02-12T11:14:57.287Z,9.97
2023-02-12T11:15:57.402Z,9.98
2023-02-12T11:16:57.238Z,10.03
2023-02-12T11:17:57.217Z,10.06
2023-02-12T11:18:57.177Z,10.03
2023-02-12T11:19:57.202Z,9.95
2023-02-12T11:20:57.190Z,9.91
2023-02-12T11:21:57.142Z,9.88
2023-02-12T11:22:57.439Z,9.89
2023-02-12T11:23:57.137Z,9.94
2023-02-12T11:25:01.207Z,10.04
2023-02-12T11:25:57.471Z,10.15
2023-02-12T11:26:57.075Z,10.31
2023-02-12T11:27:57.073Z,10.48
2023-02-12T11:28:57.131Z,10.68
2023-02-12T11:29:57.084Z,10.88
2023-02-12T11:30:57.278Z,11.05
2023-02-12T11:31:57.074Z,11.15
2023-02-12T11:32:57.609Z,11.20
2023-02-12T11:33:56.966Z,11.20
2023-02-12T11:34:57.228Z,11.14
2023-02-12T11:35:58.257Z,11.05
2023-02-12T11:36:57.023Z,10.97
2023-02-12T11:37:56.924Z,10.91
2023-02-12T11:38:56.898Z,10.86
2023-02-12T11:39:56.934Z,10.85
2023-02-12T11:40:57.184Z,10.89
2023-02-12T11:41:56.911Z,10.96
2023-02-12T11:42:56.858Z,11.07
2023-02-12T11:43:56.840Z,11.20
2023-02-12T11:44:56.850Z,11.30
2023-02-12T11:45:56.831Z,11.30
2023-02-12T11:46:56.842Z,11.29
2023-02-12T11:47:56.804Z,11.23
2023-02-12T11:48:56.827Z,11.18
2023-02-12T11:49:56.784Z,11.15
2023-02-12T11:50:56.868Z,11.11
2023-02-12T11:51:56.734Z,11.07
2023-02-12T11:52:56.744Z,11.03
2023-02-12T11:53:56.742Z,10.93
2023-02-12T11:54:56.717Z,10.83
2023-02-12T11:55:56.752Z,10.75
2023-02-12T11:56:56.695Z,10.75
2023-02-12T11:57:56.663Z,10.75
2023-02-12T11:58:56.673Z,10.73
2023-02-12T11:59:56.723Z,10.69
2023-02-12T12:00:56.674Z,10.67
2023-02-12T12:01:56.610Z,10.69
2023-02-12T12:02:56.635Z,10.68
2023-02-12T12:03:56.606Z,10.65
2023-02-12T12:04:56.645Z,10.60
2023-02-12T12:05:56.900Z,10.58
2023-02-12T12:06:56.557Z,10.57
2023-02-12T12:07:56.538Z,10.57
2023-02-12T12:08:56.512Z,10.55
2023-02-12T12:09:56.530Z,10.54
2023-02-12T12:10:56.509Z,10.51
2023-02-12T12:11:56.514Z,10.50
2023-02-12T12:12:56.487Z,10.48
2023-02-12T12:13:56.453Z,10.45
2023-02-12T12:14:56.462Z,10.46
2023-02-12T12:15:56.796Z,10.48
2023-02-12T12:16:56.398Z,10.50
2023-02-12T12:17:56.407Z,10.52
2023-02-12T12:18:56.401Z,10.51
2023-02-12T12:19:56.376Z,10.49
2023-02-12T12:20:56.395Z,10.46
2023-02-12T12:21:56.336Z,10.43
2023-02-12T12:22:56.335Z,10.42
2023-02-12T12:23:56.331Z,10.40
2023-02-12T12:24:56.290Z,10.37
2023-02-12T12:25:56.607Z,10.32
2023-02-12T12:26:56.281Z,10.30
2023-02-12T12:27:56.254Z,10.31
2023-02-12T12:28:56.245Z,10.32
2023-02-12T12:29:56.265Z,10.31
2023-02-12T12:30:56.228Z,10.31
2023-02-12T12:31:56.308Z,10.31
2023-02-12T12:32:56.204Z,10.34
2023-02-12T12:33:56.178Z,10.36
2023-02-12T12:34:56.168Z,10.34
2023-02-12T12:35:56.512Z,10.31
2023-02-12T12:36:56.196Z,10.30
2023-02-12T12:37:56.165Z,10.30
2023-02-12T12:38:56.103Z,10.32
2023-02-12T12:39:56.116Z,10.33
2023-02-12T12:40:56.079Z,10.32
2023-02-12T12:41:56.080Z,10.31
2023-02-12T12:42:56.064Z,10.32
2023-02-12T12:43:56.038Z,10.38
2023-02-12T12:44:56.102Z,10.47
2023-02-12T12:45:56.415Z,10.57
2023-02-12T12:46:56.025Z,10.66
2023-02-12T12:47:56.030Z,10.73
2023-02-12T12:48:56.026Z,10.80
2023-02-12T12:49:55.998Z,10.87
2023-02-12T12:50:55.957Z,10.91
2023-02-12T12:51:55.961Z,10.93
2023-02-12T12:52:55.940Z,10.88
2023-02-12T12:53:55.957Z,10.81
2023-02-12T12:54:55.922Z,10.71
2023-02-12T12:55:56.158Z,10.66
2023-02-12T12:56:55.874Z,10.60
2023-02-12T12:57:55.881Z,10.52
2023-02-12T12:58:55.842Z,10.48
2023-02-12T12:59:55.839Z,10.43
2023-02-12T13:00:55.875Z,10.41
2023-02-12T13:01:55.809Z,10.39
2023-02-12T13:02:55.827Z,10.36
2023-02-12T13:03:55.781Z,10.36
2023-02-12T13:04:55.749Z,10.35
2023-02-12T13:05:56.138Z,10.33
2023-02-12T13:06:55.721Z,10.31
2023-02-12T13:07:55.712Z,10.31
2023-02-12T13:08:55.732Z,10.28
2023-02-12T13:09:55.739Z,10.24
2023-02-12T13:10:55.682Z,10.20
2023-02-12T13:11:55.717Z,10.18
2023-02-12T13:12:55.655Z,10.18